New Delhi, India
Current Conditions -  °F | °C
As of 7:30 AM on Sunday 23 Nov 2014 (Local Time) from VIDP Reporting Station
Light Fog Light Fog  
Wind Chill: 54°   Ceiling: Unl
Heat Index: 54°   Visibility: 0.43mi
Dew Point: 46°   Wind: 0mph
Humidity: 77%   Direction: NA
Pressure: 30"   Gusts: NA
Location:  28.61°N, 77.21°E
Report Text: VIDP 230230Z 00000KT 0700 R/28/P2000 R/29/0900 MIFG NSC 12/08 Q1016 BECMG VIS 0800
Loading
Personal Weather Stations






























Interactive Weather Map New forecast layout! Learn more

10-Day Weather Forecast

Advertisements
Track Severe Weather on mobile